createdAt,value
2023-03-03T00:00:48.953Z,88.75
2023-03-03T00:03:19.189Z,88.53
2023-03-03T00:05:46.057Z,90.65
2023-03-03T00:08:12.990Z,93.32
2023-03-03T00:10:39.521Z,90.80
2023-03-03T00:13:15.114Z,89.03
2023-03-03T00:15:41.702Z,94.55
2023-03-03T00:18:36.439Z,83.18
2023-03-03T00:21:12.321Z,90.50
2023-03-03T00:23:40.717Z,89.50
2023-03-03T00:26:44.138Z,86.60
2023-03-03T00:29:30.999Z,85.25
2023-03-03T00:32:23.779Z,87.28
2023-03-03T00:34:53.112Z,85.73
2023-03-03T00:37:34.751Z,87.47
2023-03-03T00:40:35.311Z,93.70
2023-03-03T00:43:12.164Z,99.03
2023-03-03T00:45:53.651Z,98.13
2023-03-03T00:48:30.866Z,99.00
2023-03-03T00:50:59.484Z,105.72
2023-03-03T00:53:28.177Z,110.07
2023-03-03T00:55:55.261Z,106.43
2023-03-03T00:58:23.089Z,101.05
2023-03-03T01:00:51.804Z,102.50
2023-03-03T01:03:23.435Z,102.78
2023-03-03T01:05:50.395Z,110.43
2023-03-03T01:08:17.443Z,99.20
2023-03-03T01:10:54.414Z,99.78
2023-03-03T01:13:24.247Z,91.90
2023-03-03T01:15:51.788Z,91.82
2023-03-03T01:18:18.802Z,88.13
2023-03-03T01:20:45.683Z,87.03
2023-03-03T01:23:12.776Z,92.65
2023-03-03T01:25:39.557Z,79.95
2023-03-03T01:28:06.076Z,83.32
2023-03-03T01:30:32.678Z,84.20
2023-03-03T01:32:59.240Z,78.70
2023-03-03T01:35:26.033Z,81.00
2023-03-03T01:37:52.604Z,79.50
2023-03-03T01:40:22.311Z,79.32
2023-03-03T01:42:49.149Z,75.25
2023-03-03T01:45:26.438Z,74.68
2023-03-03T01:47:55.776Z,69.93
2023-03-03T01:50:36.881Z,78.53
2023-03-03T01:53:06.380Z,78.63
2023-03-03T01:55:39.924Z,75.80
2023-03-03T01:58:13.367Z,73.32
2023-03-03T02:03:09.778Z,89.15
2023-03-03T02:05:36.947Z,86.45
2023-03-03T02:08:04.152Z,82.93
2023-03-03T02:10:31.490Z,83.68
2023-03-03T02:12:59.066Z,84.55
2023-03-03T02:15:29.319Z,81.55
2023-03-03T02:18:00.590Z,83.13
2023-03-03T02:20:49.033Z,83.07
2023-03-03T02:23:21.598Z,76.88
2023-03-03T02:25:58.831Z,76.55
2023-03-03T02:28:30.550Z,77.97
2023-03-03T02:31:02.262Z,71.68
2023-03-03T02:33:29.661Z,57.45
2023-03-03T02:35:56.666Z,53.88
2023-03-03T02:38:40.090Z,49.70
2023-03-03T02:41:16.304Z,46.10
2023-03-03T02:44:12.998Z,45.33
2023-03-03T02:46:42.843Z,47.25
2023-03-03T02:49:11.059Z,43.80
2023-03-03T02:51:38.589Z,43.97
2023-03-03T02:54:05.817Z,44.58
2023-03-03T02:56:33.587Z,50.30
2023-03-03T02:59:00.426Z,48.75
2023-03-03T03:01:29.565Z,49.80
2023-03-03T03:03:56.356Z,50.78
2023-03-03T03:06:23.305Z,49.15
2023-03-03T03:08:49.998Z,50.28
2023-03-03T03:11:16.441Z,52.53
2023-03-03T03:13:43.180Z,56.70
2023-03-03T03:16:09.928Z,57.10
2023-03-03T03:18:36.444Z,53.30
2023-03-03T03:21:08.148Z,56.33
2023-03-03T03:23:35.114Z,52.63
2023-03-03T03:26:02.741Z,53.58
2023-03-03T03:28:29.892Z,59.80
2023-03-03T03:30:57.143Z,56.42
2023-03-03T03:33:24.997Z,56.20
2023-03-03T03:35:52.398Z,60.55
2023-03-03T03:38:19.274Z,59.17
2023-03-03T03:40:47.485Z,59.15
2023-03-03T03:43:13.970Z,58.72
2023-03-03T03:45:45.263Z,58.47
2023-03-03T03:48:13.677Z,58.38
2023-03-03T03:50:40.187Z,55.63
2023-03-03T03:53:07.420Z,53.75
2023-03-03T03:55:34.436Z,53.75
2023-03-03T03:58:00.953Z,54.63
2023-03-03T04:00:27.516Z,53.45
2023-03-03T04:02:58.463Z,48.50
2023-03-03T04:05:25.481Z,46.58
2023-03-03T04:07:52.117Z,50.10
2023-03-03T04:10:19.554Z,51.55
2023-03-03T04:12:46.931Z,50.90
2023-03-03T04:15:15.154Z,53.20
2023-03-03T04:17:42.853Z,53.38
2023-03-03T04:20:13.761Z,56.70
2023-03-03T04:22:40.249Z,52.63
2023-03-03T04:25:07.781Z,58.38
2023-03-03T04:27:39.139Z,48.83
2023-03-03T04:30:07.254Z,46.85
2023-03-03T04:32:33.930Z,44.20
2023-03-03T04:35:08.194Z,49.40
2023-03-03T04:37:38.867Z,48.05
2023-03-03T04:40:07.531Z,47.22
2023-03-03T04:42:35.231Z,46.40
2023-03-03T04:45:03.449Z,52.72
2023-03-03T04:47:32.265Z,50.08
2023-03-03T04:49:58.832Z,53.50
2023-03-03T04:52:25.410Z,55.97
2023-03-03T04:54:52.144Z,58.83
2023-03-03T04:57:18.770Z,56.25
2023-03-03T04:59:45.510Z,57.28
2023-03-03T05:02:13.144Z,58.53
2023-03-03T05:04:39.576Z,57.70
2023-03-03T05:07:06.217Z,64.38
2023-03-03T05:09:32.649Z,69.90
2023-03-03T05:11:59.018Z,62.30
2023-03-03T05:14:26.962Z,66.45
2023-03-03T05:16:53.677Z,63.40
2023-03-03T05:19:20.127Z,66.10
2023-03-03T05:21:46.493Z,68.35
2023-03-03T05:24:14.106Z,66.35
2023-03-03T05:26:42.190Z,61.28
2023-03-03T05:29:09.579Z,68.07
2023-03-03T05:31:36.669Z,68.30
2023-03-03T05:34:03.267Z,74.05
2023-03-03T05:36:29.684Z,77.53
2023-03-03T05:38:56.165Z,75.80
2023-03-03T05:41:22.851Z,75.90
2023-03-03T05:43:49.313Z,74.50
2023-03-03T05:46:15.737Z,72.25
2023-03-03T05:48:42.297Z,67.47
2023-03-03T05:51:08.910Z,74.97
2023-03-03T05:53:35.381Z,73.32
2023-03-03T05:56:02.167Z,74.35
2023-03-03T05:58:28.705Z,68.03
2023-03-03T06:00:55.104Z,70.65
2023-03-03T06:03:21.894Z,65.28
2023-03-03T06:05:48.749Z,55.88
2023-03-03T06:08:15.270Z,54.85
2023-03-03T06:10:41.727Z,55.55
2023-03-03T06:13:11.189Z,51.15
2023-03-03T06:15:37.999Z,52.53
2023-03-03T06:18:04.556Z,55.22
2023-03-03T06:20:31.637Z,52.72
2023-03-03T06:22:58.191Z,54.95
2023-03-03T06:25:24.576Z,57.42
2023-03-03T06:27:50.998Z,58.13
2023-03-03T06:30:18.820Z,60.22
2023-03-03T06:32:45.783Z,59.45
2023-03-03T06:35:12.321Z,58.28
2023-03-03T06:37:39.358Z,56.80
2023-03-03T06:40:06.794Z,63.40
2023-03-03T06:42:33.227Z,61.67
2023-03-03T06:44:59.690Z,59.50
2023-03-03T06:47:26.332Z,67.53
2023-03-03T06:49:53.380Z,59.65
2023-03-03T06:52:25.799Z,51.92
2023-03-03T06:54:57.880Z,54.57
2023-03-03T06:57:30.484Z,57.28
2023-03-03T07:00:17.755Z,57.47
2023-03-03T07:02:44.185Z,57.83
2023-03-03T07:05:15.111Z,59.28
2023-03-03T07:07:41.938Z,59.92
2023-03-03T07:10:28.800Z,65.68
2023-03-03T07:13:02.005Z,56.03
2023-03-03T07:15:35.122Z,51.58
2023-03-03T07:18:03.082Z,52.20
2023-03-03T07:20:36.622Z,51.88
2023-03-03T07:23:34.366Z,53.90
2023-03-03T07:26:00.796Z,50.17
2023-03-03T07:28:29.572Z,56.67
2023-03-03T07:30:57.681Z,51.78
2023-03-03T07:33:34.946Z,55.28
2023-03-03T07:36:03.592Z,58.92
2023-03-03T07:38:42.056Z,53.85
2023-03-03T07:41:25.625Z,55.30
2023-03-03T07:43:57.112Z,60.72
2023-03-03T07:46:29.193Z,63.45
2023-03-03T07:48:58.959Z,61.35
2023-03-03T07:51:28.962Z,61.92
2023-03-03T07:54:18.320Z,58.70
2023-03-03T07:56:45.726Z,57.30
2023-03-03T07:59:24.465Z,59.95
2023-03-03T08:01:58.715Z,62.28
2023-03-03T08:05:05.334Z,63.38
2023-03-03T08:07:35.517Z,60.00
2023-03-03T08:10:02.258Z,56.15
2023-03-03T08:12:39.310Z,55.33
2023-03-03T08:15:19.397Z,53.35
2023-03-03T08:17:47.069Z,64.60
2023-03-03T08:20:34.892Z,60.35
2023-03-03T08:23:01.402Z,63.75
2023-03-03T08:25:27.813Z,62.85
2023-03-03T08:27:54.610Z,57.05
2023-03-03T08:30:21.014Z,59.30
2023-03-03T08:32:47.892Z,55.35
2023-03-03T08:35:14.291Z,50.38
2023-03-03T08:37:40.669Z,44.45
2023-03-03T08:40:07.845Z,45.13
2023-03-03T08:42:34.252Z,49.83
2023-03-03T08:45:01.004Z,43.28
2023-03-03T08:47:27.391Z,48.13
2023-03-03T08:49:54.434Z,41.60
2023-03-03T08:52:21.008Z,46.50
2023-03-03T08:54:47.473Z,44.05
2023-03-03T08:57:13.943Z,39.25
2023-03-03T08:59:40.554Z,42.42
2023-03-03T09:02:07.262Z,43.15
2023-03-03T09:04:34.335Z,38.63
2023-03-03T09:07:00.779Z,36.03
2023-03-03T09:09:27.642Z,35.47
2023-03-03T09:11:58.367Z,35.60
2023-03-03T09:14:28.893Z,41.90
2023-03-03T09:16:56.738Z,42.00
2023-03-03T09:19:32.277Z,36.95
2023-03-03T09:22:16.579Z,41.42
2023-03-03T09:24:42.968Z,43.53
2023-03-03T09:27:29.369Z,42.90
2023-03-03T09:30:01.131Z,68.78
2023-03-03T09:32:35.166Z,79.50
2023-03-03T09:35:40.279Z,80.88
2023-03-03T09:38:33.795Z,76.32
2023-03-03T09:41:37.809Z,70.10
2023-03-03T09:44:17.176Z,51.78
2023-03-03T09:46:52.505Z,48.97
2023-03-03T09:49:18.879Z,50.25
2023-03-03T09:52:03.371Z,50.53
2023-03-03T09:55:01.012Z,50.05
2023-03-03T09:57:32.655Z,52.72
2023-03-03T10:00:18.708Z,55.90
2023-03-03T10:02:53.486Z,65.93
2023-03-03T10:05:42.202Z,63.20
2023-03-03T10:08:26.937Z,68.70
2023-03-03T10:11:03.276Z,63.60
2023-03-03T10:13:40.172Z,67.03
2023-03-03T10:16:32.308Z,59.20
2023-03-03T10:19:02.928Z,55.53
2023-03-03T10:21:50.570Z,55.47
2023-03-03T10:24:29.324Z,60.38
2023-03-03T10:27:22.005Z,64.80
2023-03-03T10:30:39.970Z,77.15
2023-03-03T10:33:20.715Z,83.07
2023-03-03T10:36:07.084Z,92.95
2023-03-03T10:38:55.452Z,93.03
2023-03-03T10:41:27.685Z,96.40
2023-03-03T10:44:18.307Z,88.18
2023-03-03T10:47:22.409Z,86.05
2023-03-03T10:50:15.266Z,85.47
2023-03-03T10:53:05.741Z,67.32
2023-03-03T10:55:46.607Z,58.85
2023-03-03T10:58:40.746Z,85.78
2023-03-03T11:01:22.338Z,48.25
2023-03-03T11:04:25.686Z,39.10
2023-03-03T11:07:08.781Z,38.58
2023-03-03T11:09:41.353Z,37.28
2023-03-03T11:12:17.869Z,47.63
2023-03-03T11:14:55.452Z,55.90
2023-03-03T11:17:27.884Z,49.33
2023-03-03T11:20:16.732Z,47.43
2023-03-03T11:22:53.776Z,46.05
2023-03-03T11:25:30.249Z,56.22
2023-03-03T11:28:10.799Z,48.22
2023-03-03T11:30:49.444Z,60.67
2023-03-03T11:33:23.127Z,56.05
2023-03-03T11:35:49.484Z,58.47
2023-03-03T11:38:33.291Z,55.60
2023-03-03T11:41:11.588Z,57.60
2023-03-03T11:43:49.696Z,70.47
2023-03-03T11:46:20.151Z,68.10
2023-03-03T11:49:05.276Z,68.65
2023-03-03T11:51:50.654Z,59.10
2023-03-03T11:54:28.901Z,58.95
2023-03-03T11:57:12.763Z,73.28
2023-03-03T11:59:56.008Z,64.63
2023-03-03T12:02:46.988Z,59.53
2023-03-03T12:05:31.509Z,54.63
2023-03-03T12:08:31.148Z,52.95
2023-03-03T12:11:09.732Z,57.42
2023-03-03T12:13:53.548Z,60.67
2023-03-03T12:16:50.942Z,63.35
2023-03-03T12:19:26.435Z,62.90
2023-03-03T12:22:04.904Z,61.92
2023-03-03T12:24:50.546Z,61.00
2023-03-03T12:27:33.739Z,67.32
2023-03-03T12:30:24.632Z,67.80
2023-03-03T12:33:11.027Z,61.35
2023-03-03T12:35:40.586Z,58.92
2023-03-03T12:38:51.592Z,64.10
2023-03-03T12:41:56.133Z,62.00
2023-03-03T12:44:44.154Z,65.53
2023-03-03T12:47:52.364Z,72.63
2023-03-03T12:50:31.014Z,70.47
2023-03-03T12:53:03.421Z,66.03
2023-03-03T12:55:47.491Z,70.00
2023-03-03T12:58:45.140Z,61.90
2023-03-03T13:01:20.404Z,64.95
2023-03-03T13:04:05.757Z,60.63
2023-03-03T13:06:40.269Z,56.38
2023-03-03T13:09:06.715Z,54.85
2023-03-03T13:11:53.897Z,47.25
2023-03-03T13:14:33.850Z,48.10
2023-03-03T13:17:12.208Z,35.70
2023-03-03T13:19:50.420Z,33.38
2023-03-03T13:22:31.572Z,31.00
2023-03-03T13:25:23.135Z,26.25
2023-03-03T13:27:54.399Z,25.45
2023-03-03T13:30:28.284Z,25.08
2023-03-03T13:33:16.892Z,24.27
2023-03-03T13:36:07.641Z,24.52
2023-03-03T13:38:57.815Z,23.30
2023-03-03T13:41:27.181Z,23.40
2023-03-03T13:43:59.904Z,22.85
2023-03-03T13:47:02.302Z,26.75
2023-03-03T13:49:36.104Z,25.60
2023-03-03T13:52:10.480Z,25.33
2023-03-03T13:55:04.806Z,23.42
2023-03-03T13:58:00.184Z,22.83
2023-03-03T14:00:35.947Z,23.27
2023-03-03T14:03:15.023Z,23.20
2023-03-03T14:06:04.569Z,22.00
2023-03-03T14:08:49.937Z,22.35
2023-03-03T14:11:26.439Z,26.80
2023-03-03T14:14:27.090Z,25.30
2023-03-03T14:17:06.046Z,24.67
2023-03-03T14:19:36.957Z,21.88
2023-03-03T14:22:16.381Z,27.08
2023-03-03T14:25:06.230Z,24.23
2023-03-03T14:27:40.681Z,21.73
2023-03-03T14:30:22.436Z,25.23
2023-03-03T14:33:07.249Z,21.42
2023-03-03T14:35:41.235Z,21.00
2023-03-03T14:38:13.785Z,22.48
2023-03-03T14:40:45.506Z,24.80
2023-03-03T14:43:36.508Z,22.67
2023-03-03T14:46:37.313Z,24.23
2023-03-03T14:49:25.983Z,22.92
2023-03-03T14:51:52.500Z,24.88
2023-03-03T14:54:34.670Z,22.00
2023-03-03T14:57:46.096Z,24.55
2023-03-03T15:00:12.920Z,21.30
2023-03-03T15:03:16.359Z,23.23
2023-03-03T15:05:57.947Z,22.70
2023-03-03T15:08:34.356Z,23.10
2023-03-03T15:11:28.223Z,21.83
2023-03-03T15:14:10.052Z,24.30
2023-03-03T15:16:36.556Z,21.77
2023-03-03T15:19:44.728Z,21.83
2023-03-03T15:22:36.544Z,23.08
2023-03-03T15:25:18.765Z,21.25
2023-03-03T15:28:22.542Z,23.10
2023-03-03T15:30:58.949Z,24.70
2023-03-03T15:33:40.823Z,23.17
2023-03-03T15:36:15.474Z,22.08
2023-03-03T15:38:54.558Z,22.25
2023-03-03T15:41:42.588Z,21.70
2023-03-03T15:44:35.023Z,24.65
2023-03-03T15:47:28.570Z,21.65
2023-03-03T15:50:06.608Z,21.13
2023-03-03T15:52:36.098Z,22.90
2023-03-03T15:55:29.372Z,21.92
2023-03-03T15:58:13.611Z,23.73
2023-03-03T16:01:10.668Z,23.70
2023-03-03T16:03:46.327Z,21.33
2023-03-03T16:06:22.171Z,21.08
2023-03-03T16:09:02.942Z,21.10
2023-03-03T16:11:47.061Z,21.52
2023-03-03T16:14:25.423Z,18.02
2023-03-03T16:17:03.289Z,22.85
2023-03-03T16:19:45.133Z,24.15
2023-03-03T16:22:41.975Z,26.67
2023-03-03T16:25:32.090Z,24.70
2023-03-03T16:28:05.803Z,25.30
2023-03-03T16:30:34.874Z,26.63
2023-03-03T16:33:13.563Z,29.77
2023-03-03T16:35:50.514Z,30.10
2023-03-03T16:38:24.273Z,25.40
2023-03-03T16:41:01.610Z,23.02
2023-03-03T16:43:27.921Z,22.80
2023-03-03T16:46:02.707Z,21.75
2023-03-03T16:51:25.971Z,19.40
2023-03-03T16:54:16.224Z,24.65
2023-03-03T16:56:48.985Z,26.48
2023-03-03T16:59:36.428Z,21.92
2023-03-03T17:02:21.675Z,24.23
2023-03-03T17:05:00.582Z,24.40
2023-03-03T17:08:13.462Z,23.85
2023-03-03T17:10:50.899Z,26.58
2023-03-03T17:13:32.347Z,24.83
2023-03-03T17:16:51.469Z,26.08
2023-03-03T17:19:41.518Z,29.60
2023-03-03T17:22:46.268Z,29.65
2023-03-03T17:25:21.333Z,32.13
2023-03-03T17:28:13.572Z,30.88
2023-03-03T17:30:59.544Z,28.10
2023-03-03T17:33:37.977Z,28.20
2023-03-03T17:36:18.304Z,27.45
2023-03-03T17:39:18.215Z,29.27
2023-03-03T17:42:04.166Z,25.25
2023-03-03T17:45:02.426Z,28.65
2023-03-03T17:48:03.729Z,26.33
2023-03-03T17:50:36.029Z,29.15
2023-03-03T17:53:26.685Z,28.70
2023-03-03T17:56:17.871Z,33.00
2023-03-03T17:59:05.920Z,31.50
2023-03-03T18:02:02.552Z,28.73
2023-03-03T18:05:00.941Z,30.20
2023-03-03T18:07:43.597Z,30.98
2023-03-03T18:10:32.798Z,34.10
2023-03-03T18:13:07.333Z,31.45
2023-03-03T18:15:36.649Z,32.90
2023-03-03T18:18:41.184Z,32.42
2023-03-03T18:21:20.901Z,33.10
2023-03-03T18:23:48.967Z,34.33
2023-03-03T18:26:41.249Z,34.78
2023-03-03T18:29:21.235Z,39.25
2023-03-03T18:31:54.254Z,41.30
2023-03-03T18:34:20.619Z,37.47
2023-03-03T18:37:08.909Z,37.17
2023-03-03T18:39:41.626Z,38.67
2023-03-03T18:42:12.365Z,32.22
2023-03-03T18:44:39.232Z,33.67
2023-03-03T18:47:05.643Z,28.77
2023-03-03T18:50:05.333Z,30.90
2023-03-03T18:52:35.177Z,28.48
2023-03-03T18:55:10.633Z,35.17
2023-03-03T18:57:38.180Z,34.22
2023-03-03T19:00:42.984Z,30.65
2023-03-03T19:03:28.473Z,30.08
2023-03-03T19:05:57.812Z,32.97
2023-03-03T19:08:44.606Z,28.85
2023-03-03T19:11:36.552Z,31.08
2023-03-03T19:14:18.532Z,26.63
2023-03-03T19:16:45.497Z,23.90
2023-03-03T19:19:14.718Z,24.55
2023-03-03T19:21:42.823Z,25.55
2023-03-03T19:24:27.262Z,25.67
2023-03-03T19:27:11.608Z,25.65
2023-03-03T19:29:44.176Z,26.52
2023-03-03T19:32:26.209Z,28.47
2023-03-03T19:35:15.423Z,25.58
2023-03-03T19:37:55.539Z,22.88
2023-03-03T19:40:58.215Z,23.80
2023-03-03T19:43:35.574Z,21.73
2023-03-03T19:46:28.906Z,20.63
2023-03-03T19:49:24.199Z,22.25
2023-03-03T19:52:05.193Z,17.83
2023-03-03T19:54:46.874Z,17.67
2023-03-03T19:57:28.618Z,18.20
2023-03-03T20:00:05.443Z,20.33
2023-03-03T20:03:21.186Z,20.98
2023-03-03T20:06:20.411Z,19.85
2023-03-03T20:09:09.746Z,17.30
2023-03-03T20:11:48.347Z,19.25
2023-03-03T20:14:39.226Z,17.42
2023-03-03T20:17:44.385Z,18.45
2023-03-03T20:20:36.076Z,18.02
2023-03-03T20:23:29.613Z,14.20
2023-03-03T20:26:43.633Z,15.45
2023-03-03T20:29:36.418Z,13.63
2023-03-03T20:32:14.964Z,16.83
2023-03-03T20:35:09.697Z,15.23
2023-03-03T20:37:58.984Z,13.93
2023-03-03T20:40:38.909Z,13.32
2023-03-03T20:43:31.026Z,12.10
2023-03-03T20:46:16.476Z,10.75
2023-03-03T20:49:01.524Z,13.18
2023-03-03T20:51:46.969Z,9.60
2023-03-03T20:54:24.409Z,8.70
2023-03-03T20:57:21.813Z,9.63
2023-03-03T21:00:00.439Z,7.30
2023-03-03T21:02:40.106Z,7.00
2023-03-03T21:05:18.698Z,9.60
2023-03-03T21:07:57.519Z,9.90
2023-03-03T21:10:27.491Z,7.97
2023-03-03T21:12:58.521Z,7.97
2023-03-03T21:15:31.053Z,10.57
2023-03-03T21:17:58.795Z,8.10
2023-03-03T21:20:32.484Z,8.02
2023-03-03T21:25:41.091Z,12.07
2023-03-03T21:28:29.787Z,11.25
2023-03-03T21:31:04.064Z,10.52
2023-03-03T21:33:42.507Z,13.45
2023-03-03T21:36:11.023Z,16.63
2023-03-03T21:38:38.896Z,11.93
2023-03-03T21:41:06.562Z,12.23
2023-03-03T21:43:38.300Z,14.65
2023-03-03T21:46:05.238Z,13.35
2023-03-03T21:48:32.178Z,11.77
2023-03-03T21:50:58.549Z,14.57
2023-03-03T21:53:26.596Z,11.02
2023-03-03T21:55:53.671Z,12.00
2023-03-03T21:58:20.268Z,9.75
2023-03-03T22:00:46.939Z,8.35
2023-03-03T22:03:15.182Z,10.13
2023-03-03T22:05:41.744Z,7.40
2023-03-03T22:08:08.132Z,11.20
2023-03-03T22:10:34.529Z,7.95
2023-03-03T22:13:01.587Z,8.45
2023-03-03T22:15:30.398Z,7.95
2023-03-03T22:17:57.080Z,9.40
2023-03-03T22:20:23.494Z,10.75
2023-03-03T22:22:49.899Z,9.30
2023-03-03T22:25:16.451Z,12.40
2023-03-03T22:27:42.854Z,10.55
2023-03-03T22:30:10.089Z,9.07
2023-03-03T22:32:36.471Z,11.15
2023-03-03T22:35:02.947Z,9.48
2023-03-03T22:37:29.317Z,13.48
2023-03-03T22:39:56.092Z,7.10
2023-03-03T22:42:23.366Z,9.40
2023-03-03T22:44:49.774Z,14.02
2023-03-03T22:47:16.410Z,11.10
2023-03-03T22:49:42.833Z,9.65
2023-03-03T22:52:09.223Z,12.45
2023-03-03T22:54:35.604Z,8.55
2023-03-03T22:57:01.965Z,8.65
2023-03-03T22:59:28.518Z,9.43
2023-03-03T23:01:56.018Z,12.20
2023-03-03T23:04:22.490Z,10.80
2023-03-03T23:06:49.937Z,12.25
2023-03-03T23:09:16.306Z,9.98
2023-03-03T23:11:42.692Z,10.05
2023-03-03T23:14:09.156Z,10.45
2023-03-03T23:16:35.549Z,11.25
2023-03-03T23:19:02.026Z,10.63
2023-03-03T23:21:28.495Z,16.73
2023-03-03T23:23:54.924Z,8.98
2023-03-03T23:26:21.514Z,10.38
2023-03-03T23:28:47.998Z,12.23
2023-03-03T23:31:14.545Z,12.00
2023-03-03T23:33:40.946Z,10.85
2023-03-03T23:36:07.640Z,8.73
2023-03-03T23:38:34.058Z,9.85
2023-03-03T23:41:00.427Z,11.27
2023-03-03T23:43:26.815Z,10.77
2023-03-03T23:45:53.256Z,10.45
2023-03-03T23:48:20.628Z,12.05
2023-03-03T23:50:48.210Z,10.70
2023-03-03T23:53:14.620Z,12.15
2023-03-03T23:55:41.468Z,9.57
2023-03-03T23:58:07.925Z,10.55
